Time;durP1;ratioP1;P1;durP2;ratioP2;P2;SDS_P1;SDS_P2;PMS_P1;PMS_P2;Temp;Humidity;BMP_temperature;BMP_pressure;BME280_temperature;BME280_humidity;BME280_pressure;Samples;Min_cycle;Max_cycle;Signal;HPM_P1;HPM_P2
2022/11/29 16:30:19;;;;;;;37.03;24.20;;;;;;;5.02;100.00;96376.03;4844632;29;19974;-84
2022/11/29 16:33:02;;;;;;;34.30;20.30;;;;;;;4.99;100.00;96372.84;4861106;29;20069;-86
2022/11/29 16:35:40;;;;;;;17.05;10.73;;;;;;;4.91;100.00;96376.06;4839492;29;20042;-87
2022/11/29 16:38:16;;;;;;;19.67;12.33;;;;;;;4.87;100.00;96372.88;4858914;29;20098;-84
2022/11/29 16:41:00;;;;;;;18.33;11.67;;;;;;;4.88;100.00;96379.72;4856758;29;20054;-86
2022/11/29 16:43:52;;;;;;;18.17;12.80;;;;;;;4.82;100.00;96379.38;4848130;29;20121;-84
2022/11/29 16:46:31;;;;;;;19.37;13.53;;;;;;;4.82;100.00;96376.78;4853632;29;20038;-91
2022/11/29 16:48:59;;;;;;;20.73;12.80;;;;;;;4.73;100.00;96386.97;4838763;29;20057;-88
2022/11/29 16:51:51;;;;;;;19.47;12.00;;;;;;;4.75;100.00;96384.25;4867886;29;20034;-88
2022/11/29 16:54:24;;;;;;;18.27;11.53;;;;;;;4.68;100.00;96383.06;4818828;29;20037;-87
2022/11/29 16:56:54;;;;;;;21.42;12.70;;;;;;;4.70;100.00;96382.00;4838261;29;20046;-89
2022/11/29 16:59:25;;;;;;;20.67;13.00;;;;;;;4.60;100.00;96381.06;4841608;29;20038;-89
2022/11/29 17:01:51;;;;;;;17.83;11.97;;;;;;;4.57;100.00;96381.31;4853979;29;20045;-88
2022/11/29 17:04:17;;;;;;;20.40;12.63;;;;;;;4.53;100.00;96389.44;4845076;29;20536;-88
2022/11/29 17:06:48;;;;;;;24.67;15.77;;;;;;;4.55;100.00;96384.97;4841062;29;20037;-88
2022/11/29 17:09:25;;;;;;;25.13;15.73;;;;;;;4.55;100.00;96393.59;4843066;29;20053;-89
2022/11/29 17:11:52;;;;;;;26.80;18.50;;;;;;;4.52;100.00;96400.81;4817204;29;20030;-84
2022/11/29 17:14:25;;;;;;;23.30;13.80;;;;;;;4.52;100.00;96393.00;4856560;29;20424;-84
2022/11/29 17:17:05;;;;;;;21.45;13.38;;;;;;;4.54;100.00;96393.72;4856554;29;20040;-84
2022/11/29 17:19:33;;;;;;;19.70;12.93;;;;;;;4.53;100.00;96394.66;4829041;29;20040;-86
2022/11/29 17:22:08;;;;;;;20.27;12.60;;;;;;;4.56;100.00;96390.06;4839943;29;20052;-80
2022/11/29 17:24:36;;;;;;;21.63;13.13;;;;;;;4.56;100.00;96395.28;4820574;29;20034;-81
2022/11/29 17:27:01;;;;;;;20.37;12.20;;;;;;;4.61;100.00;96389.69;4821141;29;20548;-84
2022/11/29 17:29:27;;;;;;;19.03;11.37;;;;;;;4.58;100.00;96392.53;4792528;29;20037;-84
2022/11/29 17:31:53;;;;;;;21.30;11.40;;;;;;;4.55;100.00;96403.19;4818112;29;20046;-83
2022/11/29 17:34:18;;;;;;;16.03;11.13;;;;;;;4.44;100.00;96397.03;4804004;29;20080;-84
2022/11/29 17:36:44;;;;;;;17.53;11.53;;;;;;;4.47;100.00;96399.41;4818242;29;20653;-82
2022/11/29 17:39:10;;;;;;;19.57;12.10;;;;;;;4.46;100.00;96409.91;4819583;29;20038;-83
2022/11/29 17:41:36;;;;;;;17.90;11.20;;;;;;;4.47;100.00;96401.19;4824125;29;20073;-87
2022/11/29 17:44:03;;;;;;;36.77;14.50;;;;;;;4.37;100.00;96401.06;4823092;29;20046;-83
2022/11/29 17:46:31;;;;;;;29.93;12.33;;;;;;;4.41;100.00;96407.69;4823262;29;20041;-83
2022/11/29 17:48:59;;;;;;;22.23;10.83;;;;;;;4.37;100.00;96415.84;4817815;29;20050;-82
2022/11/29 17:51:25;;;;;;;21.80;11.30;;;;;;;4.36;100.00;96408.97;4811723;29;20097;-83
2022/11/29 17:53:51;;;;;;;23.00;14.13;;;;;;;4.31;100.00;96417.13;4838584;29;20034;-86
2022/11/29 17:56:20;;;;;;;31.37;19.57;;;;;;;4.39;100.00;96420.00;4846713;29;20038;-87
2022/11/29 17:58:49;;;;;;;23.13;13.50;;;;;;;4.45;100.00;96423.91;4846224;29;20172;-86
2022/11/29 18:01:18;;;;;;;19.93;12.90;;;;;;;4.41;100.00;96431.13;4850501;29;20046;-83
2022/11/29 18:03:45;;;;;;;19.80;11.57;;;;;;;4.43;100.00;96425.81;4841620;29;20023;-83
2022/11/29 18:06:15;;;;;;;18.63;11.67;;;;;;;4.40;100.00;96420.84;4846890;29;20050;-87
2022/11/29 18:08:46;;;;;;;21.77;13.17;;;;;;;4.41;100.00;96423.31;4845097;29;20046;-86
2022/11/29 18:11:23;;;;;;;20.50;13.17;;;;;;;4.41;100.00;96425.91;4823634;29;20054;-84
2022/11/29 18:13:52;;;;;;;21.50;13.77;;;;;;;4.39;100.00;96422.63;4834408;29;20049;-85
2022/11/29 18:16:20;;;;;;;22.33;14.93;;;;;;;4.40;100.00;96429.47;4847048;29;20038;-86
2022/11/29 18:18:46;;;;;;;23.47;14.93;;;;;;;4.30;100.00;96433.72;4856594;29;20493;-86
2022/11/29 18:21:13;;;;;;;33.13;19.10;;;;;;;4.37;100.00;96427.09;4854753;29;20038;-85
2022/11/29 18:23:43;;;;;;;24.43;14.73;;;;;;;4.42;100.00;96435.38;4844418;29;20432;-86
2022/11/29 18:26:15;;;;;;;27.83;17.37;;;;;;;4.29;100.00;96423.41;4848074;29;20125;-87
2022/11/29 18:28:42;;;;;;;30.20;18.10;;;;;;;4.31;100.00;96427.56;4870328;29;20449;-87
2022/11/29 18:31:09;;;;;;;18.50;11.67;;;;;;;4.22;100.00;96421.25;4855446;29;20045;-86
2022/11/29 18:33:35;;;;;;;21.40;13.23;;;;;;;4.21;100.00;96427.41;4865519;29;20070;-86
2022/11/29 18:36:08;;;;;;;21.30;13.23;;;;;;;4.24;100.00;96427.19;4867940;29;20074;-87
2022/11/29 18:38:35;;;;;;;17.20;10.85;;;;;;;4.15;100.00;96432.25;4875611;29;20072;-85
2022/11/29 18:41:18;;;;;;;19.90;12.23;;;;;;;4.18;100.00;96432.84;4877996;29;20027;-85
2022/11/29 18:43:45;;;;;;;27.55;14.23;;;;;;;4.52;100.00;96429.47;4841330;29;20751;-84
2022/11/29 18:46:18;;;;;;;29.50;12.43;;;;;;;4.26;100.00;96429.69;4854269;29;20102;-85
2022/11/29 18:48:45;;;;;;;23.23;12.25;;;;;;;4.23;100.00;96433.34;4844583;29;20117;-85
2022/11/29 18:51:17;;;;;;;24.57;11.40;;;;;;;4.15;100.00;96433.06;4855157;29;20026;-85
2022/11/29 18:53:43;;;;;;;23.77;12.37;;;;;;;4.11;100.00;96431.66;4841321;29;20503;-85
2022/11/29 18:56:14;;;;;;;18.60;10.90;;;;;;;4.08;100.00;96442.28;4853131;29;20029;-85
2022/11/29 18:58:51;;;;;;;17.07;10.40;;;;;;;4.08;100.00;96428.44;4837829;29;20106;-85
2022/11/29 19:01:18;;;;;;;19.40;10.90;;;;;;;4.14;100.00;96428.00;4856403;29;20753;-85
2022/11/29 19:03:48;;;;;;;17.40;10.73;;;;;;;4.08;100.00;96423.25;4856417;29;20105;-84
2022/11/29 19:06:19;;;;;;;21.10;13.17;;;;;;;4.11;100.00;96434.25;4841054;29;20162;-85
2022/11/29 19:08:46;;;;;;;20.80;12.97;;;;;;;4.02;100.00;96432.31;4853681;29;20060;-85
2022/11/29 19:11:19;;;;;;;19.07;11.67;;;;;;;4.03;100.00;96447.03;4848989;29;20085;-85
2022/11/29 19:13:46;;;;;;;19.10;11.40;;;;;;;3.98;100.00;96447.34;4827959;29;20121;-85
2022/11/29 19:16:15;;;;;;;18.30;10.73;;;;;;;4.11;100.00;96446.44;4822251;29;20058;-85
2022/11/29 19:18:41;;;;;;;16.30;9.53;;;;;;;4.06;100.00;96454.59;4833294;29;20041;-85
2022/11/29 19:21:15;;;;;;;16.63;10.30;;;;;;;4.10;100.00;96453.44;4816301;29;20042;-85
2022/11/29 19:23:41;;;;;;;16.20;9.57;;;;;;;4.11;100.00;96454.25;4802483;29;20042;-84
2022/11/29 19:26:12;;;;;;;14.80;9.60;;;;;;;4.08;100.00;96457.06;4833391;29;20519;-84
2022/11/29 19:28:41;;;;;;;17.13;10.10;;;;;;;4.14;100.00;96460.06;4798204;29;20029;-84
2022/11/29 19:31:07;;;;;;;16.57;10.10;;;;;;;4.08;100.00;96457.06;4816105;29;20038;-85
2022/11/29 19:33:34;;;;;;;18.17;10.23;;;;;;;4.10;100.00;96452.59;4794415;29;21232;-84
2022/11/29 19:36:10;;;;;;;16.33;10.53;;;;;;;4.16;100.00;96454.75;4799262;29;20097;-85
2022/11/29 19:38:37;;;;;;;16.37;9.70;;;;;;;4.09;100.00;96458.72;4780483;29;20535;-85
2022/11/29 19:41:13;;;;;;;17.33;10.33;;;;;;;4.11;100.00;96459.47;4771326;29;20034;-84
2022/11/29 19:43:39;;;;;;;19.57;11.43;;;;;;;4.17;100.00;96444.22;4743711;29;20056;-85
2022/11/29 19:46:10;;;;;;;18.43;10.87;;;;;;;4.21;100.00;96456.03;4778247;29;20033;-84
2022/11/29 19:48:37;;;;;;;15.80;10.27;;;;;;;4.24;100.00;96457.59;4779268;29;21091;-85
2022/11/29 19:51:05;;;;;;;16.80;10.77;;;;;;;4.16;100.00;96459.97;4761933;29;20038;-85
2022/11/29 19:53:31;;;;;;;16.03;10.00;;;;;;;4.26;100.00;96466.13;4775932;29;20561;-84
2022/11/29 19:56:05;;;;;;;17.33;9.70;;;;;;;4.29;100.00;96471.09;4757823;29;20125;-85
2022/11/29 19:58:31;;;;;;;16.83;9.73;;;;;;;4.22;100.00;96457.69;4781989;29;20046;-84
2022/11/29 20:01:21;;;;;;;14.00;9.43;;;;;;;4.22;100.00;96464.69;4824702;29;20049;-85
2022/11/29 20:03:57;;;;;;;16.63;9.63;;;;;;;4.21;100.00;96463.03;4833328;29;20050;-84
2022/11/29 20:06:26;;;;;;;13.53;8.63;;;;;;;4.26;100.00;96460.94;4803656;29;20385;-86
2022/11/29 20:08:52;;;;;;;15.67;8.77;;;;;;;4.17;100.00;96461.59;4785655;29;20933;-85
2022/11/29 20:11:21;;;;;;;19.80;10.77;;;;;;;4.21;100.00;96457.81;4780823;29;20049;-85
2022/11/29 20:13:53;;;;;;;23.23;16.57;;;;;;;4.18;100.00;96453.66;4775766;29;20041;-85
2022/11/29 20:16:20;;;;;;;25.45;17.02;;;;;;;4.15;100.00;96455.69;4824530;29;20077;-87
2022/11/29 20:18:51;;;;;;;19.37;11.20;;;;;;;4.42;100.00;96463.19;4805960;29;20456;-85
2022/11/29 20:21:19;;;;;;;16.50;9.67;;;;;;;4.58;100.00;96457.66;4793197;29;20022;-84
2022/11/29 20:23:58;;;;;;;;;;;;;;;;;;;;;
2022/11/29 20:26:34;;;;;;;32.07;19.53;;;;;;;4.63;100.00;96463.38;4789013;29;20163;-85
2022/11/29 20:29:29;;;;;;;32.03;19.07;;;;;;;4.60;100.00;96474.00;4776214;29;20073;-84
2022/11/29 20:31:55;;;;;;;20.73;14.07;;;;;;;4.64;100.00;96480.63;4741138;29;20042;-84
2022/11/29 20:34:23;;;;;;;16.90;10.97;;;;;;;4.59;100.00;96483.56;4759860;29;20841;-84
2022/11/29 20:37:19;;;;;;;14.73;8.87;;;;;;;4.65;100.00;96483.13;4767221;29;20038;-85
2022/11/29 20:39:58;;;;;;;19.70;12.60;;;;;;;4.58;100.00;96487.13;4807056;29;20048;-86
2022/11/29 20:42:49;;;;;;;14.37;8.47;;;;;;;4.57;100.00;96485.47;4781942;29;20111;-85
2022/11/29 20:45:15;;;;;;;10.93;6.60;;;;;;;4.60;100.00;96489.63;4815716;29;20049;-85
2022/11/29 20:47:50;;;;;;;11.37;7.07;;;;;;;4.56;100.00;96493.41;4798085;29;20106;-85
2022/11/29 20:50:28;;;;;;;13.37;8.17;;;;;;;4.62;100.00;96485.13;4807811;29;20034;-86
2022/11/29 20:53:12;;;;;;;12.67;7.30;;;;;;;4.52;100.00;96486.75;4852404;29;20148;-86
2022/11/29 20:55:46;;;;;;;;;;;;;;;4.53;100.00;96483.22;4851833;29;20548;-86
2022/11/29 20:58:18;;;;;;;10.77;6.87;;;;;;;4.54;100.00;96490.09;4855017;29;19920;-85
2022/11/29 21:00:45;;;;;;;13.23;8.13;;;;;;;4.47;100.00;96495.75;4843233;29;20049;-85
2022/11/29 21:03:15;;;;;;;12.37;7.67;;;;;;;4.45;100.00;96492.44;4859845;29;20041;-85
2022/11/29 21:05:49;;;;;;;10.77;6.83;;;;;;;4.37;100.00;96489.59;4832391;29;20061;-85
2022/11/29 21:08:17;;;;;;;11.33;7.17;;;;;;;4.30;100.00;96482.34;4857996;29;20046;-85
2022/11/29 21:10:44;;;;;;;11.70;6.63;;;;;;;4.24;100.00;96478.44;4822952;29;20106;-85
2022/11/29 21:13:11;;;;;;;12.03;6.67;;;;;;;4.31;100.00;96479.63;4858273;29;20042;-85
2022/11/29 21:15:49;;;;;;;14.47;8.77;;;;;;;4.26;100.00;96489.56;4855352;29;20170;-85
2022/11/29 21:18:24;;;;;;;12.13;8.33;;;;;;;4.27;100.00;96493.81;4842874;29;20034;-86
2022/11/29 21:21:08;;;;;;;13.27;7.17;;;;;;;4.27;100.00;96493.00;4852321;29;20152;-85
2022/11/29 21:23:48;;;;;;;14.27;8.80;;;;;;;4.29;100.00;96493.69;4846232;29;20049;-85
2022/11/29 21:26:19;;;;;;;13.73;7.77;;;;;;;4.30;100.00;96484.97;4857294;29;20090;-85
2022/11/29 21:29:19;;;;;;;13.00;7.73;;;;;;;4.28;100.00;96487.66;4850974;29;20496;-85
2022/11/29 21:31:47;;;;;;;12.77;6.93;;;;;;;4.30;100.00;96488.38;4826658;29;20775;-85
2022/11/29 21:34:13;;;;;;;14.43;8.33;;;;;;;4.28;100.00;96490.25;4842379;29;20038;-85
2022/11/29 21:36:39;;;;;;;11.63;6.80;;;;;;;4.23;100.00;96489.78;4845583;29;20132;-85
2022/11/29 21:39:14;;;;;;;12.57;8.10;;;;;;;4.25;100.00;96490.50;4861340;29;20038;-85
2022/11/29 21:41:41;;;;;;;18.70;7.90;;;;;;;4.21;100.00;96496.88;4844466;29;20397;-85
2022/11/29 21:44:06;;;;;;;15.10;9.47;;;;;;;4.19;100.00;96491.78;4856190;29;20423;-85
2022/11/29 21:46:32;;;;;;;12.87;8.60;;;;;;;4.21;100.00;96499.47;4852139;29;20034;-85
2022/11/29 21:48:58;;;;;;;12.70;7.77;;;;;;;4.25;100.00;96495.69;4856476;29;20038;-85
2022/11/29 21:51:24;;;;;;;11.63;7.17;;;;;;;4.24;100.00;96500.06;4846604;29;20460;-85
2022/11/29 21:54:00;;;;;;;12.80;7.30;;;;;;;4.35;100.00;96496.66;4844207;29;20076;-85
2022/11/29 21:56:30;;;;;;;16.10;7.40;;;;;;;4.32;100.00;96502.09;4821756;29;20034;-85
2022/11/29 21:58:57;;;;;;;16.10;8.13;;;;;;;4.33;100.00;96508.16;4837105;29;20219;-86
2022/11/29 22:01:25;;;;;;;13.67;7.80;;;;;;;4.33;100.00;96503.78;4860740;29;20125;-85
2022/11/29 22:03:52;;;;;;;14.37;8.27;;;;;;;4.36;100.00;96497.50;4847109;29;20316;-85
2022/11/29 22:06:22;;;;;;;12.97;7.40;;;;;;;4.36;100.00;96507.91;4860495;29;20500;-85
2022/11/29 22:08:49;;;;;;;12.30;7.33;;;;;;;4.34;100.00;96509.81;4837835;29;20042;-85
2022/11/29 22:11:29;;;;;;;11.77;6.90;;;;;;;4.33;100.00;96500.34;4853199;29;20072;-85
2022/11/29 22:14:12;;;;;;;12.20;7.77;;;;;;;4.23;100.00;96498.44;4849961;29;20093;-85
2022/11/29 22:16:43;;;;;;;13.52;7.78;;;;;;;4.30;100.00;96501.41;4837799;29;20045;-85
2022/11/29 22:19:11;;;;;;;13.60;7.60;;;;;;;4.31;100.00;96502.22;4829903;29;20056;-85
2022/11/29 22:21:39;;;;;;;14.23;8.47;;;;;;;4.25;100.00;96500.91;4856197;29;20038;-85
2022/11/29 22:24:06;;;;;;;13.87;7.93;;;;;;;4.28;100.00;96505.88;4840840;29;20456;-86
2022/11/29 22:26:31;;;;;;;14.10;7.40;;;;;;;4.26;100.00;96502.59;4860426;29;20567;-85
2022/11/29 22:28:57;;;;;;;13.77;7.83;;;;;;;4.24;100.00;96504.47;4856012;29;20038;-85
2022/11/29 22:31:23;;;;;;;13.63;8.33;;;;;;;4.27;100.00;96500.81;4862762;29;20090;-86
2022/11/29 22:33:48;;;;;;;14.73;7.90;;;;;;;4.30;100.00;96501.41;4859753;29;20460;-85
2022/11/29 22:36:14;;;;;;;14.93;8.50;;;;;;;4.34;100.00;96502.81;4863201;29;20065;-85
2022/11/29 22:38:40;;;;;;;13.90;7.77;;;;;;;4.28;100.00;96502.44;4835987;29;20080;-85
2022/11/29 22:41:10;;;;;;;13.20;8.20;;;;;;;4.24;100.00;96502.69;4862433;29;20114;-85
2022/11/29 22:43:36;;;;;;;12.70;7.67;;;;;;;4.25;100.00;96506.09;4846774;29;20041;-87
2022/11/29 22:46:23;;;;;;;14.17;7.43;;;;;;;4.22;100.00;96511.53;4855120;29;20033;-85
2022/11/29 22:48:54;;;;;;;14.03;8.37;;;;;;;4.18;100.00;96508.34;4834541;29;20048;-85
2022/11/29 22:51:25;;;;;;;16.87;8.30;;;;;;;4.19;100.00;96494.41;4856408;29;20035;-85
2022/11/29 22:53:54;;;;;;;13.90;7.73;;;;;;;4.28;100.00;96495.47;4858467;29;20053;-85
2022/11/29 22:56:21;;;;;;;16.13;8.73;;;;;;;4.25;100.00;96506.09;4849950;29;20045;-85
2022/11/29 22:58:48;;;;;;;15.30;8.90;;;;;;;4.27;100.00;96504.22;4842473;29;20037;-85
2022/11/29 23:01:16;;;;;;;18.30;10.07;;;;;;;4.25;100.00;96511.31;4855133;29;20420;-85
2022/11/29 23:03:44;;;;;;;22.77;11.17;;;;;;;4.21;100.00;96509.88;4862568;29;20038;-85
2022/11/29 23:06:15;;;;;;;19.27;11.27;;;;;;;4.23;100.00;96508.84;4862922;29;20560;-85
2022/11/29 23:08:42;;;;;;;17.93;10.10;;;;;;;4.22;100.00;96503.72;4839474;29;20048;-85
2022/11/29 23:11:12;;;;;;;18.50;10.47;;;;;;;4.18;100.00;96505.72;4854452;29;20731;-85
2022/11/29 23:13:39;;;;;;;20.43;12.40;;;;;;;4.21;100.00;96500.31;4858959;29;20037;-85
2022/11/29 23:16:07;;;;;;;19.73;12.07;;;;;;;4.24;100.00;96504.47;4852109;29;20456;-85
2022/11/29 23:18:38;;;;;;;22.47;13.17;;;;;;;4.27;100.00;96508.63;4857598;29;20173;-85
2022/11/29 23:21:09;;;;;;;24.20;13.63;;;;;;;4.23;100.00;96511.44;4824964;29;20048;-85
2022/11/29 23:23:35;;;;;;;25.23;14.43;;;;;;;4.26;100.00;96497.38;4854347;29;20038;-85
2022/11/29 23:26:19;;;;;;;24.53;13.70;;;;;;;4.24;100.00;96499.25;4863178;29;20090;-85
2022/11/29 23:28:45;;;;;;;26.23;15.93;;;;;;;4.19;100.00;96504.81;4849377;29;20042;-85
2022/11/29 23:31:11;;;;;;;29.00;17.43;;;;;;;4.13;100.00;96500.03;4855047;29;20541;-86
2022/11/29 23:33:38;;;;;;;27.87;17.67;;;;;;;4.22;100.00;96512.38;4831331;29;20029;-85
2022/11/29 23:36:06;;;;;;;30.23;18.10;;;;;;;4.22;100.00;96508.94;4862163;29;20041;-85
2022/11/29 23:38:32;;;;;;;30.50;17.87;;;;;;;4.19;100.00;96507.41;4832568;29;20124;-85
2022/11/29 23:40:58;;;;;;;31.43;18.60;;;;;;;4.17;100.00;96498.03;4829572;29;20038;-85
2022/11/29 23:43:27;;;;;;;32.53;20.90;;;;;;;4.22;100.00;96499.34;4851031;29;20038;-86
2022/11/29 23:45:54;;;;;;;29.93;18.23;;;;;;;4.19;100.00;96511.75;4856237;29;20045;-85
2022/11/29 23:48:20;;;;;;;30.73;18.90;;;;;;;4.12;100.00;96494.94;4871374;29;20140;-85
2022/11/29 23:50:45;;;;;;;33.67;19.50;;;;;;;4.15;100.00;96492.13;4863558;29;20193;-86
2022/11/29 23:53:15;;;;;;;31.43;19.40;;;;;;;4.13;100.00;96491.41;4839068;29;20026;-85
2022/11/29 23:55:41;;;;;;;35.37;21.37;;;;;;;4.14;100.00;96498.28;4831721;29;20042;-85
2022/11/29 23:58:09;;;;;;;33.70;20.30;;;;;;;4.04;100.00;96495.50;4851858;29;20061;-85
